createdAt,value
2023-01-27T00:00:36.114Z,92.86
2023-01-27T00:03:02.826Z,92.69
2023-01-27T00:05:29.539Z,92.66
2023-01-27T00:07:58.749Z,92.81
2023-01-27T00:10:26.432Z,93.13
2023-01-27T00:13:12.398Z,92.18
2023-01-27T00:15:39.687Z,92.90
2023-01-27T00:18:08.087Z,92.58
2023-01-27T00:20:53.408Z,92.98
2023-01-27T00:23:41.153Z,93.49
2023-01-27T00:26:11.750Z,93.00
2023-01-27T00:28:40.334Z,93.81
2023-01-27T00:31:27.304Z,93.96
2023-01-27T00:33:56.276Z,94.09
2023-01-27T00:36:23.089Z,93.93
2023-01-27T00:38:49.709Z,94.26
2023-01-27T00:41:19.851Z,94.11
2023-01-27T00:43:51.635Z,94.26
2023-01-27T00:48:58.443Z,93.92
2023-01-27T00:51:25.401Z,93.75
2023-01-27T00:53:52.052Z,93.07
2023-01-27T00:56:19.458Z,93.47
2023-01-27T00:58:46.276Z,93.33
2023-01-27T01:01:15.609Z,93.67
2023-01-27T01:03:43.018Z,93.37
2023-01-27T01:06:11.759Z,93.75
2023-01-27T01:16:21.978Z,92.09
2023-01-27T01:18:48.946Z,91.59
2023-01-27T01:21:15.848Z,91.86
2023-01-27T01:23:43.862Z,92.03
2023-01-27T01:26:12.120Z,91.87
2023-01-27T01:28:39.179Z,91.32
2023-01-27T01:31:11.025Z,91.01
2023-01-27T01:36:13.324Z,91.09
2023-01-27T01:38:40.131Z,91.43
2023-01-27T01:41:10.262Z,90.77
2023-01-27T01:43:36.889Z,91.33
2023-01-27T01:46:04.476Z,91.24
2023-01-27T01:49:01.877Z,90.64
2023-01-27T01:51:40.462Z,90.62
2023-01-27T01:54:12.309Z,91.14
2023-01-27T01:56:41.916Z,90.23
2023-01-27T01:59:17.807Z,89.74
2023-01-27T02:04:21.429Z,90.26
2023-01-27T02:07:05.835Z,90.23
2023-01-27T02:09:33.004Z,90.52
2023-01-27T02:12:00.593Z,90.72
2023-01-27T02:14:27.315Z,91.02
2023-01-27T02:16:54.615Z,91.01
2023-01-27T02:19:42.543Z,90.72
2023-01-27T02:22:13.227Z,89.93
2023-01-27T02:24:47.306Z,89.75
2023-01-27T02:27:14.512Z,90.23
2023-01-27T02:29:41.098Z,89.88
2023-01-27T02:32:07.609Z,90.20
2023-01-27T02:34:37.891Z,89.57
2023-01-27T02:37:08.166Z,90.27
2023-01-27T02:39:40.286Z,90.23
2023-01-27T02:42:08.448Z,90.50
2023-01-27T02:44:35.176Z,89.77
2023-01-27T02:47:01.756Z,90.09
2023-01-27T02:49:28.274Z,90.11
2023-01-27T02:51:54.916Z,90.13
2023-01-27T02:54:21.475Z,90.08
2023-01-27T02:56:48.072Z,89.95
2023-01-27T02:59:14.583Z,89.97
2023-01-27T03:01:41.197Z,90.15
2023-01-27T03:04:09.309Z,89.70
2023-01-27T03:09:14.176Z,89.09
2023-01-27T03:11:59.478Z,89.39
2023-01-27T03:14:44.427Z,88.80
2023-01-27T03:17:29.670Z,89.75
2023-01-27T03:19:56.224Z,90.04
2023-01-27T03:22:22.795Z,89.84
2023-01-27T03:24:49.330Z,89.81
2023-01-27T03:27:15.841Z,89.45
2023-01-27T03:29:58.160Z,89.15
2023-01-27T03:32:26.523Z,89.31
2023-01-27T03:34:53.229Z,90.15
2023-01-27T03:37:38.384Z,91.02
2023-01-27T03:40:24.267Z,90.27
2023-01-27T03:43:12.198Z,90.10
2023-01-27T03:45:57.632Z,90.13
2023-01-27T03:48:24.288Z,90.23
2023-01-27T03:50:53.851Z,90.09
2023-01-27T03:53:20.850Z,90.21
2023-01-27T03:55:47.552Z,89.93
2023-01-27T03:58:19.849Z,89.02
2023-01-27T04:00:57.842Z,89.74
2023-01-27T04:03:45.295Z,90.05
2023-01-27T04:06:34.267Z,90.47
2023-01-27T04:09:01.107Z,89.77
2023-01-27T04:11:46.108Z,90.16
2023-01-27T04:14:12.954Z,89.74
2023-01-27T04:16:39.749Z,89.36
2023-01-27T04:19:09.337Z,89.11
2023-01-27T04:21:36.315Z,89.70
2023-01-27T04:24:04.337Z,89.69
2023-01-27T04:26:34.649Z,90.42
2023-01-27T04:29:03.445Z,90.66
2023-01-27T04:31:30.739Z,89.97
2023-01-27T04:33:57.299Z,89.69
2023-01-27T04:36:23.984Z,89.88
2023-01-27T04:38:50.544Z,89.23
2023-01-27T04:41:17.320Z,89.67
2023-01-27T04:43:43.866Z,89.04
2023-01-27T04:46:10.522Z,89.09
2023-01-27T04:48:37.112Z,89.18
2023-01-27T04:51:03.819Z,89.17
2023-01-27T04:53:30.392Z,89.34
2023-01-27T04:56:06.324Z,89.23
2023-01-27T04:58:33.205Z,89.79
2023-01-27T05:00:59.764Z,89.41
2023-01-27T05:03:26.336Z,90.17
2023-01-27T05:05:52.863Z,90.07
2023-01-27T05:08:19.433Z,90.01
2023-01-27T05:10:46.018Z,89.77
2023-01-27T05:13:12.693Z,89.39
2023-01-27T05:15:39.290Z,88.96
2023-01-27T05:18:05.927Z,89.29
2023-01-27T05:20:32.848Z,88.98
2023-01-27T05:23:19.424Z,89.25
2023-01-27T05:25:46.348Z,89.63
2023-01-27T05:28:12.927Z,89.82
2023-01-27T05:30:39.681Z,89.71
2023-01-27T05:33:08.215Z,89.89
2023-01-27T05:35:35.428Z,90.24
2023-01-27T05:38:02.182Z,90.05
2023-01-27T05:40:28.864Z,89.93
2023-01-27T05:42:55.386Z,90.24
2023-01-27T05:45:21.957Z,90.65
2023-01-27T05:47:51.947Z,90.04
2023-01-27T05:50:18.949Z,90.75
2023-01-27T05:52:46.074Z,89.74
2023-01-27T05:55:12.947Z,89.21
2023-01-27T05:57:39.667Z,88.89
2023-01-27T06:00:06.962Z,89.14
2023-01-27T06:02:33.566Z,89.21
2023-01-27T06:05:00.164Z,89.34
2023-01-27T06:10:05.723Z,89.08
2023-01-27T06:12:32.278Z,89.48
2023-01-27T06:15:00.397Z,89.48
2023-01-27T06:17:26.933Z,89.25
2023-01-27T06:19:53.514Z,89.61
2023-01-27T06:22:20.201Z,89.86
2023-01-27T06:24:46.714Z,89.46
2023-01-27T06:27:13.255Z,89.72
2023-01-27T06:29:39.832Z,89.21
2023-01-27T06:32:06.497Z,88.83
2023-01-27T06:34:33.055Z,88.82
2023-01-27T06:36:59.643Z,89.42
2023-01-27T06:39:26.437Z,89.88
2023-01-27T06:41:53.061Z,89.37
2023-01-27T06:44:19.650Z,89.59
2023-01-27T06:46:46.208Z,88.99
2023-01-27T06:49:13.451Z,89.33
2023-01-27T06:51:39.967Z,87.73
2023-01-27T06:54:06.758Z,86.86
2023-01-27T06:59:04.549Z,86.80
2023-01-27T07:01:31.139Z,86.16
2023-01-27T07:03:57.773Z,86.38
2023-01-27T07:06:24.364Z,86.88
2023-01-27T07:08:52.047Z,86.64
2023-01-27T07:11:19.633Z,85.99
2023-01-27T07:13:46.525Z,86.77
2023-01-27T07:16:13.270Z,86.00
2023-01-27T07:18:39.817Z,86.88
2023-01-27T07:21:06.592Z,86.62
2023-01-27T07:23:33.176Z,85.18
2023-01-27T07:26:04.290Z,85.66
2023-01-27T07:28:32.381Z,85.50
2023-01-27T07:31:03.039Z,84.45
2023-01-27T07:33:29.663Z,83.77
2023-01-27T07:35:56.250Z,84.60
2023-01-27T07:38:22.825Z,85.34
2023-01-27T07:40:49.427Z,85.06
2023-01-27T07:43:16.079Z,85.35
2023-01-27T07:45:42.702Z,85.08
2023-01-27T07:48:09.858Z,84.39
2023-01-27T07:50:36.573Z,85.48
2023-01-27T07:53:05.007Z,84.00
2023-01-27T07:55:33.177Z,84.64
2023-01-27T07:57:59.845Z,85.62
2023-01-27T08:00:26.735Z,84.66
2023-01-27T08:02:54.687Z,84.71
2023-01-27T08:05:22.942Z,83.78
2023-01-27T08:07:51.006Z,83.82
2023-01-27T08:10:19.028Z,83.45
2023-01-27T08:12:46.156Z,83.40
2023-01-27T08:15:13.076Z,83.73
2023-01-27T08:17:39.845Z,84.19
2023-01-27T08:20:06.970Z,84.81
2023-01-27T08:22:33.507Z,84.21
2023-01-27T08:25:00.072Z,83.83
2023-01-27T08:27:26.617Z,83.84
2023-01-27T08:29:53.582Z,83.19
2023-01-27T08:32:20.110Z,84.35
2023-01-27T08:34:46.655Z,83.22
2023-01-27T08:37:13.274Z,84.04
2023-01-27T08:39:39.841Z,84.74
2023-01-27T08:42:06.361Z,83.07
2023-01-27T08:44:32.945Z,82.97
2023-01-27T08:46:59.462Z,83.45
2023-01-27T08:49:26.078Z,82.92
2023-01-27T08:51:52.644Z,82.45
2023-01-27T08:54:19.300Z,83.64
2023-01-27T08:56:45.906Z,82.87
2023-01-27T08:59:12.571Z,83.40
2023-01-27T09:01:39.552Z,83.05
2023-01-27T09:04:06.081Z,83.62
2023-01-27T09:06:32.698Z,83.95
2023-01-27T09:09:12.305Z,83.96
2023-01-27T09:11:41.756Z,83.65
2023-01-27T09:14:09.033Z,83.61
2023-01-27T09:16:35.894Z,83.86
2023-01-27T09:19:03.443Z,82.90
2023-01-27T09:21:30.357Z,83.04
2023-01-27T09:23:56.939Z,82.45
2023-01-27T09:26:23.543Z,82.83
2023-01-27T09:28:50.146Z,82.82
2023-01-27T09:31:16.824Z,83.15
2023-01-27T09:33:43.466Z,83.11
2023-01-27T09:36:12.119Z,82.67
2023-01-27T09:38:45.342Z,82.72
2023-01-27T09:41:24.037Z,82.12
2023-01-27T09:44:02.698Z,82.85
2023-01-27T09:46:50.746Z,82.30
2023-01-27T09:49:24.113Z,82.58
2023-01-27T09:52:21.160Z,82.17
2023-01-27T09:55:21.995Z,83.06
2023-01-27T09:58:04.189Z,82.66
2023-01-27T10:01:08.809Z,81.34
2023-01-27T10:03:43.477Z,80.82
2023-01-27T10:06:42.101Z,82.30
2023-01-27T10:09:14.559Z,80.29
2023-01-27T10:11:47.545Z,79.90
2023-01-27T10:14:19.999Z,79.04
2023-01-27T10:17:24.369Z,81.03
2023-01-27T10:23:13.653Z,80.89
2023-01-27T10:25:54.166Z,80.31
2023-01-27T10:28:24.099Z,80.90
2023-01-27T10:31:13.568Z,80.63
2023-01-27T10:33:46.389Z,80.00
2023-01-27T10:36:26.597Z,79.84
2023-01-27T10:39:05.856Z,79.16
2023-01-27T10:41:47.367Z,77.73
2023-01-27T10:44:16.618Z,78.24
2023-01-27T10:46:58.456Z,77.79
2023-01-27T10:50:14.581Z,77.26
2023-01-27T10:52:48.077Z,78.65
2023-01-27T10:55:21.874Z,78.47
2023-01-27T11:01:18.121Z,77.94
2023-01-27T11:03:33.886Z,76.15
2023-01-27T11:06:08.505Z,79.07
2023-01-27T11:08:38.355Z,79.38
2023-01-27T11:11:27.061Z,78.71
2023-01-27T11:14:03.462Z,78.94
2023-01-27T11:16:37.301Z,77.81
2023-01-27T11:19:28.614Z,78.52
2023-01-27T11:22:07.105Z,78.10
2023-01-27T11:25:02.652Z,77.94
2023-01-27T11:27:55.248Z,78.62
2023-01-27T11:30:28.117Z,78.60
2023-01-27T11:35:30.843Z,78.74
2023-01-27T11:38:09.892Z,78.53
2023-01-27T11:40:41.723Z,77.46
2023-01-27T11:43:16.321Z,78.61
2023-01-27T11:45:45.279Z,79.04
2023-01-27T11:48:14.946Z,78.24
2023-01-27T11:50:43.112Z,78.76
2023-01-27T11:53:09.541Z,78.91
2023-01-27T11:55:44.005Z,79.48
2023-01-27T11:58:19.523Z,80.04
2023-01-27T12:00:51.832Z,78.88
2023-01-27T12:03:47.530Z,79.05
2023-01-27T12:06:41.755Z,79.16
2023-01-27T12:09:35.997Z,79.13
2023-01-27T12:12:15.056Z,80.10
2023-01-27T12:14:59.852Z,81.64
2023-01-27T12:17:55.387Z,81.57
2023-01-27T12:20:21.940Z,80.49
2023-01-27T12:22:53.711Z,80.69
2023-01-27T12:25:25.362Z,79.22
2023-01-27T12:27:55.170Z,80.00
2023-01-27T12:30:25.085Z,80.03
2023-01-27T12:32:52.563Z,81.25
2023-01-27T12:35:30.551Z,80.46
2023-01-27T12:38:05.376Z,80.55
2023-01-27T12:40:33.934Z,81.07
2023-01-27T12:43:22.648Z,81.38
2023-01-27T12:46:10.559Z,80.88
2023-01-27T12:48:48.226Z,80.47
2023-01-27T12:51:21.328Z,80.75
2023-01-27T12:53:49.901Z,81.14
2023-01-27T12:59:00.241Z,80.89
2023-01-27T13:01:37.542Z,81.04
2023-01-27T13:04:16.390Z,80.85
2023-01-27T13:07:03.880Z,81.50
2023-01-27T13:09:50.962Z,81.04
2023-01-27T13:12:27.925Z,80.14
2023-01-27T13:14:57.468Z,80.25
2023-01-27T13:17:36.095Z,79.66
2023-01-27T13:20:16.539Z,79.90
2023-01-27T13:22:53.825Z,80.72
2023-01-27T13:25:24.908Z,80.79
2023-01-27T13:27:56.686Z,81.08
2023-01-27T13:30:29.169Z,80.57
2023-01-27T13:33:02.887Z,81.23
2023-01-27T13:35:41.886Z,81.53
2023-01-27T13:38:19.459Z,82.22
2023-01-27T13:40:47.533Z,81.32
2023-01-27T13:43:20.918Z,82.04
2023-01-27T13:45:59.443Z,80.80
2023-01-27T13:48:32.160Z,81.24
2023-01-27T13:51:18.373Z,80.88
2023-01-27T13:53:47.774Z,82.09
2023-01-27T13:56:37.346Z,82.19
2023-01-27T13:59:25.788Z,82.54
2023-01-27T14:02:26.769Z,82.49
2023-01-27T14:05:17.411Z,81.72
2023-01-27T14:08:15.049Z,81.85
2023-01-27T14:10:55.687Z,81.94
2023-01-27T14:13:56.063Z,81.06
2023-01-27T14:16:33.644Z,82.07
2023-01-27T14:19:37.075Z,81.10
2023-01-27T14:22:20.171Z,81.81
2023-01-27T14:24:53.398Z,81.60
2023-01-27T14:27:28.971Z,80.90
2023-01-27T14:30:19.356Z,81.73
2023-01-27T14:32:58.809Z,80.92
2023-01-27T14:35:59.457Z,81.40
2023-01-27T14:38:48.392Z,81.52
2023-01-27T14:41:32.270Z,80.43
2023-01-27T14:44:15.260Z,81.61
2023-01-27T14:46:56.292Z,81.79
2023-01-27T14:49:40.591Z,80.76
2023-01-27T14:52:23.609Z,80.76
2023-01-27T14:55:28.000Z,80.28
2023-01-27T15:00:59.762Z,79.48
2023-01-27T15:03:50.424Z,79.80
2023-01-27T15:06:35.070Z,79.70
2023-01-27T15:09:26.463Z,79.77
2023-01-27T15:12:29.833Z,81.07
2023-01-27T15:15:03.321Z,80.67
2023-01-27T15:17:46.422Z,80.23
2023-01-27T15:20:49.165Z,80.54
2023-01-27T15:23:26.799Z,80.12
2023-01-27T15:26:00.143Z,80.37
2023-01-27T15:28:32.327Z,79.73
2023-01-27T15:31:06.294Z,79.53
2023-01-27T15:34:04.698Z,80.32
2023-01-27T15:36:40.389Z,80.66
2023-01-27T15:39:09.953Z,80.40
2023-01-27T15:41:38.186Z,82.31
2023-01-27T15:44:04.918Z,81.68
2023-01-27T15:46:36.199Z,79.05
2023-01-27T15:49:05.229Z,78.48
2023-01-27T15:51:36.662Z,79.67
2023-01-27T15:54:04.484Z,80.16
2023-01-27T15:57:06.648Z,79.54
2023-01-27T15:59:58.444Z,80.22
2023-01-27T16:02:28.986Z,79.88
2023-01-27T16:10:18.999Z,80.73
2023-01-27T16:12:48.688Z,80.76
2023-01-27T16:15:15.586Z,80.66
2023-01-27T16:17:57.461Z,80.90
2023-01-27T16:20:29.361Z,80.47
2023-01-27T16:26:30.562Z,80.41
2023-01-27T16:29:17.693Z,80.97
2023-01-27T16:31:44.420Z,79.89
2023-01-27T16:34:23.374Z,79.93
2023-01-27T16:37:01.077Z,80.11
2023-01-27T16:39:50.799Z,80.35
2023-01-27T16:42:17.780Z,80.97
2023-01-27T16:44:50.964Z,80.88
2023-01-27T16:47:41.411Z,81.00
2023-01-27T16:50:32.046Z,80.76
2023-01-27T16:52:58.780Z,81.21
2023-01-27T16:55:25.572Z,80.99
2023-01-27T16:57:54.639Z,80.63
2023-01-27T17:00:28.632Z,80.79
2023-01-27T17:02:58.151Z,81.22
2023-01-27T17:05:25.952Z,80.87
2023-01-27T17:08:14.340Z,79.87
2023-01-27T17:11:08.260Z,80.74
2023-01-27T17:13:44.597Z,81.23
2023-01-27T17:16:19.130Z,80.70
2023-01-27T17:18:52.758Z,80.90
2023-01-27T17:21:29.580Z,81.64
2023-01-27T17:24:01.999Z,81.52
2023-01-27T17:26:28.696Z,82.34
2023-01-27T17:28:55.355Z,81.92
2023-01-27T17:31:24.786Z,81.09
2023-01-27T17:33:59.167Z,81.32
2023-01-27T17:36:25.744Z,81.39
2023-01-27T17:38:55.589Z,81.68
2023-01-27T17:41:35.938Z,81.87
2023-01-27T17:44:11.529Z,81.69
2023-01-27T17:46:38.779Z,81.50
2023-01-27T17:49:16.540Z,81.54
2023-01-27T17:54:25.847Z,81.69
2023-01-27T17:57:00.871Z,81.48
2023-01-27T17:59:28.881Z,81.05
2023-01-27T18:01:59.775Z,80.84
2023-01-27T18:04:26.407Z,81.05
2023-01-27T18:06:53.024Z,81.71
2023-01-27T18:09:24.977Z,81.94
2023-01-27T18:11:53.586Z,81.63
2023-01-27T18:14:21.439Z,81.82
2023-01-27T18:17:05.658Z,82.01
2023-01-27T18:19:33.744Z,82.24
2023-01-27T18:22:10.313Z,82.07
2023-01-27T18:27:30.618Z,81.85
2023-01-27T18:30:02.216Z,82.15
2023-01-27T18:32:37.914Z,82.12
2023-01-27T18:35:21.549Z,81.68
2023-01-27T18:37:58.681Z,81.89
2023-01-27T18:40:30.380Z,81.62
2023-01-27T18:42:57.839Z,81.82
2023-01-27T18:45:26.091Z,81.68
2023-01-27T18:47:52.983Z,81.47
2023-01-27T18:50:25.081Z,81.39
2023-01-27T18:52:52.291Z,80.78
2023-01-27T18:55:20.703Z,81.29
2023-01-27T18:57:49.948Z,81.23
2023-01-27T19:00:19.329Z,80.71
2023-01-27T19:02:49.137Z,81.08
2023-01-27T19:05:21.439Z,81.64
2023-01-27T19:07:48.111Z,81.82
2023-01-27T19:10:20.813Z,94.54
2023-01-27T19:12:47.432Z,75.98
2023-01-27T19:15:15.098Z,76.89
2023-01-27T19:17:44.689Z,79.21
2023-01-27T19:20:19.776Z,79.82
2023-01-27T19:22:47.519Z,80.37
2023-01-27T19:25:14.526Z,80.80
2023-01-27T19:27:43.439Z,80.99
2023-01-27T19:30:28.162Z,81.66
2023-01-27T19:32:55.762Z,81.75
2023-01-27T19:35:24.208Z,81.95
2023-01-27T19:37:53.898Z,81.92
2023-01-27T19:40:23.907Z,82.48
2023-01-27T19:42:50.721Z,81.81
2023-01-27T19:45:19.308Z,82.03
2023-01-27T19:47:49.121Z,82.25
2023-01-27T19:50:27.436Z,82.24
2023-01-27T19:52:53.979Z,82.63
2023-01-27T19:55:21.328Z,82.53
2023-01-27T19:57:49.081Z,82.24
2023-01-27T20:00:25.892Z,82.15
2023-01-27T20:02:53.163Z,82.53
2023-01-27T20:05:20.566Z,82.73
2023-01-27T20:10:27.241Z,83.01
2023-01-27T20:13:05.874Z,83.62
2023-01-27T20:15:37.321Z,83.13
2023-01-27T20:18:04.696Z,82.79
2023-01-27T20:20:31.377Z,82.59
2023-01-27T20:22:58.076Z,83.14
2023-01-27T20:25:27.800Z,83.14
2023-01-27T20:28:00.022Z,83.36
2023-01-27T20:30:29.258Z,83.37
2023-01-27T20:32:56.511Z,83.13
2023-01-27T20:35:23.272Z,83.82
2023-01-27T20:37:51.779Z,83.68
2023-01-27T20:40:23.732Z,83.71
2023-01-27T20:42:51.229Z,84.06
2023-01-27T20:45:18.346Z,83.93
2023-01-27T20:47:49.810Z,84.37
2023-01-27T20:50:16.580Z,83.84
2023-01-27T20:52:43.193Z,83.99
2023-01-27T20:55:09.932Z,84.44
2023-01-27T20:57:36.580Z,84.59
2023-01-27T21:00:03.275Z,84.74
2023-01-27T21:02:30.128Z,84.93
2023-01-27T21:04:57.074Z,84.89
2023-01-27T21:07:24.744Z,84.76
2023-01-27T21:09:53.617Z,84.26
2023-01-27T21:12:21.448Z,84.58
2023-01-27T21:14:48.256Z,84.72
2023-01-27T21:17:14.810Z,84.61
2023-01-27T21:19:41.457Z,84.31
2023-01-27T21:22:07.973Z,84.39
2023-01-27T21:24:35.601Z,84.46
2023-01-27T21:27:02.199Z,84.47
2023-01-27T21:29:28.752Z,84.42
2023-01-27T21:34:29.035Z,83.07
2023-01-27T21:36:55.999Z,83.74
2023-01-27T21:39:23.536Z,83.96
2023-01-27T21:41:52.832Z,83.79
2023-01-27T21:44:39.554Z,83.48
2023-01-27T21:47:08.431Z,83.52
2023-01-27T21:49:56.006Z,83.41
2023-01-27T21:52:24.135Z,83.54
2023-01-27T21:54:50.757Z,83.33
2023-01-27T21:57:18.110Z,82.92
2023-01-27T22:02:18.547Z,81.23
2023-01-27T22:04:46.278Z,81.12
2023-01-27T22:07:15.695Z,81.33
2023-01-27T22:09:42.613Z,81.83
2023-01-27T22:12:11.309Z,81.24
2023-01-27T22:14:37.907Z,81.01
2023-01-27T22:17:04.528Z,81.20
2023-01-27T22:19:31.255Z,81.08
2023-01-27T22:21:57.883Z,80.24
2023-01-27T22:24:24.623Z,79.95
2023-01-27T22:26:51.566Z,79.94
2023-01-27T22:29:18.124Z,79.96
2023-01-27T22:31:44.642Z,80.51
2023-01-27T22:34:11.197Z,79.61
2023-01-27T22:36:37.774Z,80.51
2023-01-27T22:39:05.101Z,80.27
2023-01-27T22:41:32.189Z,80.57
2023-01-27T22:46:29.995Z,80.10
2023-01-27T22:48:56.487Z,80.48
2023-01-27T22:51:23.036Z,80.27
2023-01-27T22:53:49.690Z,79.67
2023-01-27T22:56:16.281Z,80.07
2023-01-27T22:58:42.837Z,80.30
2023-01-27T23:01:09.395Z,80.74
2023-01-27T23:03:35.986Z,81.17
2023-01-27T23:06:06.624Z,80.68
2023-01-27T23:08:34.135Z,81.20
2023-01-27T23:11:05.231Z,81.27
2023-01-27T23:13:32.587Z,81.21
2023-01-27T23:15:59.300Z,80.67
2023-01-27T23:18:25.887Z,80.64
2023-01-27T23:20:53.184Z,80.69
2023-01-27T23:23:19.859Z,81.30
2023-01-27T23:25:47.733Z,81.51
2023-01-27T23:28:16.709Z,81.11
2023-01-27T23:30:44.679Z,81.26
2023-01-27T23:33:12.536Z,81.10
2023-01-27T23:35:39.487Z,80.88
2023-01-27T23:38:14.020Z,81.30
2023-01-27T23:40:45.971Z,80.96
2023-01-27T23:43:12.484Z,81.27
2023-01-27T23:45:39.383Z,81.45
2023-01-27T23:48:06.108Z,81.39
2023-01-27T23:50:32.624Z,81.22
2023-01-27T23:52:59.171Z,81.24
2023-01-27T23:55:25.850Z,81.05
2023-01-27T23:57:52.408Z,81.24
